Simon Green

Chief Scout - Leeds United
9 Dec 2028
Saturday
Process

Personality

Adaptability (18) Ambition (5) Controversy (2) Loyalty (14) Pressure (4) Professionalism (11) Sportsmanship (3) Temperament (13)

Profile

Coaching Style Democratic
License National A
Determination 14
Man Management 5
Motivating 7
Discipline 8
Job Satisfaction
100%
Fatigue
0%
Role Chief Scout
Wage 69.4K p/w
Contract 14.03.2029

Performance

Behaviour Good
Training Effectiveness
46%
Player Development
60%
Injury Prevention
55%
Tactical Implementation
55%

Recent Events

Attended a recruitment meeting now
Attended a recruitment meeting now
Recommended a transfer target now
Attended a recruitment meeting 7d ago
Attended a recruitment meeting 7d ago
Recommended a transfer target 7d ago
Recommended a transfer target 7d ago
Recommended a transfer target 7d ago

Currently Monitoring

162
Player Club Status Ability Confidence Watched Last Observed Latest Vote
Trey Nyoni Rotherham United Active 139 / 145 40% 8 04.07.2028 -
Daniel Banjaqui Benfica Active 127 / 132 40% 1 04.07.2028 -
Noah Markmann Esbjerg Active 120 / 123 40% 1 04.07.2028 -
Giovanni Leoni Lincoln City Active 143 / 144 40% 11 26.06.2028 -
Tobías Ramírez River Plate Active 121 / 136 40% 2 26.06.2028 -
Celías Ingenthron Platense Active 116 / 123 40% 1 26.06.2028 -
Christos Mouzakitis Hull City Active 136 / 144 40% 5 19.06.2028 -
Honest Ahanor Atalanta Active 139 / 143 40% 15 19.06.2028 -
Augusto Bando Ascoli Active 113 / 117 40% 2 12.06.2028 -
Andrey Ivlev Nizhniy Novgorod Active 120 / 121 40% 1 12.06.2028 -
André Miranda Porto Active 112 / 122 40% 1 04.06.2028 -
Alphadjo Cissé Lecce Active 133 / 134 40% 1 04.06.2028 -
Ronan Kpakio AC Milan Active 123 / 127 40% 13 31.05.2028 -
Ayden Heaven Portsmouth Active 146 / 155 40% 12 24.01.2028 -
Toni Fruk Talleres Active 132 / 133 66% 1 01.01.2028 -
Caleb Yirenkyi Coventry City Active 139 / 151 40% 11 31.12.2027 -
Tyler Fletcher Rotherham United Active 111 / 120 40% 7 31.12.2027 -
Riquelme Thompson-Jones Accrington Stanley Active 104 / 123 40% 2 31.12.2027 -
Olivier Mambwa Young Boys Active 112 / 114 40% 2 30.12.2027 -
Victor Hernandez Santa Fe Active 125 / 119 40% 12 29.12.2027 -
Josh Nichols Oldham Athletic Active 116 / 121 40% 5 28.12.2027 -
Lucas Bergvall Tottenham Active 155 / 156 40% 13 25.12.2027 -
Hugo Rojas Instituto Active 97 / 104 40% 3 23.12.2027 -
Esquerdinha Notts County Active 121 / 124 40% 4 19.12.2027 -
Matias Siltanen Malmo FF Active 121 / 134 40% 8 13.12.2027 -
Josh Acheampong Everton Active 138 / 146 40% 8 10.12.2027 -
Archie Gray Southampton Active 159 / 152 40% 8 06.12.2027 -
Jan Bürger Northampton Town Active 123 / 128 40% 4 01.12.2027 -
Juan Manuel Villalba Tigre Active 124 / 129 40% 3 29.11.2027 -
Agustín Obregón River Plate Active 114 / 119 40% 5 26.11.2027 -
Luka Vušković Tottenham Active 146 / 160 40% 4 25.11.2027 -
Nicolas Sport Recife Active 110 / 117 40% 1 20.11.2027 -
Adrian Skogmar Malmo FF Active 107 / 125 40% 3 30.10.2027 -
Rhys Walters Port Vale Active 102 / 118 40% 2 29.10.2027 -
Nazareno Roselli Defensa y Justicia Active 120 / 114 40% 1 25.10.2027 -
Matthew Litherland Harrogate Town Active 115 / 124 40% 1 19.10.2027 -
Eliás Montiel Borussia Dortmund Active 139 / 145 40% 9 30.09.2027 -
Kosta Nedeljković Aston Villa Active 139 / 140 40% 1 24.09.2027 -
Timoteo Chamorro Talleres Active 106 / 119 40% 1 19.09.2027 -
Jacob Wright Norwich City Active 117 / 129 40% 1 07.09.2027 -
José Cavadia Aguilas Doradas Active 97 / 112 40% 3 30.08.2027 -
Andrea Cogoni Cosenza Active 102 / 107 40% 1 11.08.2027 -
Sascha Britschgi AC Milan Active 123 / 128 40% 6 10.08.2027 -
Tiago Freitas Benfica Active 116 / 125 40% 4 07.08.2027 -
Riley Owen Stevenage Active 103 / 116 40% 4 06.08.2027 -
Miguel Figueiredo Benfica Active 113 / 122 40% 3 06.08.2027 -
Wessel Kuhn PSV Active 107 / 118 40% 4 02.08.2027 -
Martim Cunha Porto Active 104 / 111 40% 2 04.07.2027 -
Ezra Mayers West Ham United Active 113 / 132 40% 2 26.06.2027 -
Joe Johnson Luton Town Active 97 / 107 40% 1 24.06.2027 -
Vittorio Magni Cesena Active 101 / 110 40% 1 24.06.2027 -
Gady Beyuku Blackburn Rovers Active 117 / 124 40% 1 23.06.2027 -
Kiani Inge Groningen Active 110 / 114 40% 2 21.06.2027 -
Jaygo van Ommeren Utrecht Active 103 / 114 40% 1 17.06.2027 -
Thiago Almada LOSC Lille Active 145 / 146 69% 1 01.06.2027 Approve
Francisco Trincão Inter Active 156 / 156 66% 1 01.06.2027 Approve
Nathan Broadhead Wrexham Active 118 / 123 76% 1 01.06.2027 Approve
Samuele di Benedetto Twente Active 114 / 122 40% 1 01.06.2027 -
Aune Heggebø West Bromwich Albion Active 133 / 123 40% 1 31.05.2027 -
Leo Castledine Middlesbrough Active 133 / 127 40% 5 30.05.2027 -
Rocco Vata Watford Active 119 / 127 40% 7 30.05.2027 -
Filippo Distefano Empoli Active 110 / 119 40% 3 28.05.2027 -
Emanuel Emegha Chelsea Active 147 / 143 40% 9 24.05.2027 -
Giorgi Kvernadze Frosinone Active 124 / 124 40% 7 24.05.2027 -
Mohamed-Ali Cho Hull City Active 132 / 132 40% 3 23.05.2027 -
Malik Mothersille Stockport County Active 109 / 116 40% 3 23.05.2027 -
Mathys Tel Tottenham Active 139 / 144 40% 5 21.05.2027 -
Jay Stansfield Birmingham Active 128 / 122 40% 5 21.05.2027 -
Stiven Shpendi Empoli Active 117 / 118 40% 6 20.05.2027 -
Josh Coburn Millwall Active 122 / 122 40% 2 20.05.2027 -
Tyreece Campbell Charlton Athletic Active 117 / 118 40% 3 20.05.2027 -
Aidomo Emakhu Oxford United Active 124 / 123 40% 6 19.05.2027 -
Pablo Felipe West Ham United Active 139 / 133 40% 6 18.05.2027 -
Richard Koné Queens Park Rangers Active 129 / 125 40% 7 17.05.2027 -
Ilyas Ansah Hull City Active 125 / 139 40% 5 16.05.2027 -
Gonçalo Oliveira Benfica Active 110 / 115 40% 3 13.05.2027 -
Sindre Walle Egeli Udinese Active 134 / 137 40% 9 03.05.2027 -
Sam Bell Bristol City Active 117 / 125 40% 2 03.05.2027 -
Mateus Mané Burnley Active 139 / 137 40% 3 30.04.2027 -
Fábio Carvalho Brentford Active 140 / 144 40% 7 29.04.2027 -
Bence Dárdai VfL Wolfsburg Active 125 / 131 40% 1 26.04.2027 -
David Romero Parma Active 130 / 130 40% 4 24.04.2027 -
David Ozoh Derby County Active 123 / 125 40% 1 24.04.2027 -
Jeff Ekhator Juventus Active 128 / 134 40% 2 20.04.2027 -
Berna CSKA 1948 Active 111 / 119 40% 1 14.04.2027 -
Morgan Rogers Chelsea Active 161 / 156 40% 7 11.04.2027 -
Joe Gelhardt Hull City Active 132 / 137 40% 4 05.04.2027 -
Marezi Portsmouth Active 118 / 119 40% 1 31.03.2027 -
Georginio Rutter Brighton Active 153 / 144 40% 12 20.03.2027 -
Matt O'Riley Brighton Active 152 / 145 40% 1 19.01.2027 -
Yeremy Pino Crystal Palace Active 145 / 153 40% 1 19.01.2027 -
Iliman N'Diaye Everton Active 160 / 161 40% 6 31.12.2026 Monitor
Giacomo Raspadori Atalanta Active 153 / 150 40% 1 31.12.2026 -
Mohammad Hosseini Malavan Active 118 / 121 40% 1 28.12.2026 -
Erick Dolly Black Aces Active 118 / 121 40% 4 27.12.2026 -
James Garner Everton Active 147 / 153 40% 3 27.12.2026 -
Michael Kayode Brentford Active 138 / 145 40% 1 27.12.2026 -
Rodrigo Muniz Fulham Active 135 / 142 40% 3 24.12.2026 -
Amadou Onana Aston Villa Active 159 / 160 40% 2 23.12.2026 -
Mats Wieffer Brighton Active 152 / 153 40% 1 23.12.2026 -
Evidence Makgopa Orlando Pirates Active 105 / 116 40% 2 21.12.2026 -
João Pedro Chelsea Active 142 / 156 40% 4 21.12.2026 -
Zach Ryan Ismaily Active 92 / 90 40% 3 20.12.2026 -
Yehor Yarmoliuk Brentford Active 149 / 146 40% 2 19.12.2026 -
Juanlu Bournemouth Active 145 / 150 40% 1 19.12.2026 -
Adam Wharton Crystal Palace Active 142 / 154 40% 2 17.12.2026 -
Maxence Lacroix Chelsea Active 154 / 143 40% 2 17.12.2026 -
Wilson Isidor Sunderland Active 130 / 131 40% 4 15.12.2026 -
Wessam Abou Ali Columbus Crew Active 130 / 128 40% 3 09.12.2026 -
Etiosa Ighodaro Kaizer Chiefs Active 114 / 117 40% 2 09.12.2026 -
Talles Magno New York City Active 127 / 130 40% 4 04.12.2026 -
Moisés Caicedo Chelsea Active 162 / 165 40% 2 03.12.2026 -
Nico O'Reilly Manchester City Active 148 / 158 40% 2 02.12.2026 -
Jarrad Branthwaite Everton Active 153 / 149 40% 1 02.12.2026 -
Ousmane Diomande Nottingham Forest Active 150 / 151 40% 3 01.12.2026 -
Elliot Anderson Manchester City Active 152 / 148 40% 1 01.12.2026 -
Nicolas Jackson Aston Villa Active 141 / 148 40% 3 29.11.2026 -
Kévin Denkey FC Cincinnati Active 126 / 131 40% 1 22.11.2026 -
Yeangel Montero Naxxar Lions Active 99 / 99 40% 1 22.11.2026 -
Yousef Salech Cardiff City Lost 118 / 129 40% 5 21.11.2026 -
Bénie Traoré New York City Active 124 / 125 40% 4 20.11.2026 -
Josh Sargent Toronto FC Active 126 / 122 40% 3 20.11.2026 -
Tadeo Allende Inter Miami CF Active 120 / 127 40% 3 19.11.2026 -
Cheikh Sabaly Vancouver Whitecaps Active 121 / 127 40% 3 17.11.2026 -
Jesus Ferreira Seattle Sounders Active 134 / 128 40% 3 15.11.2026 -
Lewis Hall Newcastle United Active 142 / 148 40% 3 11.11.2026 -
Victor Olatunji Real Salt Lake Active 117 / 117 40% 3 10.11.2026 -
Ian Maatsen Aston Villa Active 152 / 146 40% 1 05.11.2026 -
Martín Ojeda Orlando City Active 138 / 131 40% 7 31.10.2026 -
Jan Paul van Hecke Tottenham Active 163 / 159 40% 1 31.10.2026 -
Sandro Tonali Tottenham Active 172 / 174 40% 1 28.10.2026 -
Ryan Sessegnon Fulham Active 145 / 138 40% 1 28.10.2026 -
Cody Gakpo Liverpool Active 155 / 157 40% 1 26.10.2026 -
Leonardo Campana New England Revolution Active 134 / 129 40% 1 24.10.2026 -
Kevin Schade Chelsea Active 157 / 143 40% 1 23.10.2026 -
Kelvin Yeboah Minnesota United FC Active 123 / 123 40% 1 21.10.2026 -
Germán Berterame Inter Miami CF Active 139 / 137 40% 3 17.10.2026 -
Gabriel Martinelli Arsenal Active 166 / 156 40% 2 16.10.2026 -
Ryan Gravenberch Liverpool Active 157 / 156 40% 2 12.10.2026 -
Matthijs de Ligt Manchester United Active 148 / 162 40% 1 12.10.2026 -
Nicolò Tresoldi Club Brugge Active 138 / 132 40% 1 11.10.2026 -
Agustín Anello Philadelphia Union Active 124 / 129 40% 2 09.10.2026 -
Matheus Cunha Manchester United Active 163 / 152 40% 1 08.10.2026 -
Tyrese Campbell Sheffield United Active 118 / 124 40% 1 06.10.2026 -
Tino Livramento Newcastle United Active 149 / 162 40% 1 05.10.2026 -
Wesley Fofana Chelsea Active 164 / 155 40% 1 05.10.2026 -
Alonso Martínez New York City Active 112 / 123 40% 4 03.10.2026 -
Alexander Isak Liverpool Active 170 / 167 40% 3 02.10.2026 -
Indiana Vassilev Philadelphia Union Active 114 / 124 40% 1 30.09.2026 -
Kevin Kelsy Portland Timbers Active 114 / 115 40% 2 27.09.2026 -
Dejan Joveljić Seattle Sounders Active 130 / 129 40% 1 27.09.2026 -
Brandon Vázquez Austin FC Active 118 / 123 40% 2 26.09.2026 -
Taty Castellanos West Ham United Active 144 / 148 40% 1 24.09.2026 -
Alexander Aravena Portland Timbers Active 117 / 127 40% 1 22.09.2026 -
Maclyn Biokpo Jenewari Rivers United Active 88 / 92 40% 1 21.09.2026 -
Duncan McGuire Houston Dynamo Active 117 / 128 40% 3 20.09.2026 -
André Wolverhampton Active 138 / 142 40% 1 20.09.2026 -
Jeremie Frimpong Liverpool Active 158 / 160 40% 1 20.09.2026 -
Aaron Hickey Brentford Active 136 / 149 40% 1 19.09.2026 -
Alejandro Piedrahita Deportivo Pereira Active 131 / 124 40% 1 15.09.2026 -
Pedro Porro Tottenham Active 142 / 146 40% 1 15.09.2026 -
Cemran Dansin Orlando Pirates Active 94 / 111 40% 1 02.08.2026 -